Triathlon du Sud - 02/06/2012

Courte Distance


Pl Do. Nom - Surname Prénom - Name S-Cat /cat Club - Team TEMPS - Time /sx P1 Tps1 Vit1 P2 Tps2 Vit2 P3 Tps3 Vit3
1 203 SUGIER THIBAUT MS2 1 tricastin triathlon club 2:09:36.18 1 1 0:22:49.8 3,9 3 1:08:57.3 34,8 2 0:37:49.0 15,9
2 110 PINHEIRO KEVIN MS1 1 Montélimar triathlon 2:10:10.62 2 7 0:24:41.2 3,6 1 1:06:33.3 36,1 4 0:38:56.0 15,4
3 88 ARROYO FREDERIC MS4 1 FLEURY MEDITERRANEE TRIATHLON 2:13:18.14 3 3 0:23:47.7 3,8 5 1:10:50.3 33,9 3 0:38:40.0 15,5
4 99 TSIRSIKOLOU VALENTIN MS1 2 Les Sables Vendée Triathlon 2:14:25.93 4 8 0:24:54.8 3,6 2 1:08:55.5 34,8 8 0:40:35.5 14,8
5 150 SPIEWAK JEAN-MATHIAS MS4 2 Triathlon Club La Grande-Motte 2:19:17.61 5 2 0:23:38.1 3,8 16 1:14:09.6 32,4 10 0:41:29.7 14,5
6 177 DEVEAUX DOMINIQUE MS3 1 Jacou Triathlon 2:19:44.53 6 11 0:25:22.6 3,5 8 1:12:56.5 32,9 9 0:41:25.3 14,5
7 193 MARTIN JÉRÉMY MS3 2 NIMES TRIATHLON 2:21:28.04 7 13 0:27:42.8 3,2 12 1:13:10.2 32,8 7 0:40:34.9 14,8
8 197 VALLEJO CÉDRIC MS3 3 VO2 TRIATHLON MONTPELLIER 2:22:38.18 8 19 0:28:05.6 3,2 6 1:12:26.9 33,1 12 0:42:05.5 14,3
9 186 ROSSI ROMAIN MS1 3 tricastin triathlon club 2:23:06.82 9 6 0:24:40.5 3,6 21 1:15:29.3 31,8 14 0:42:56.9 14,0
10 209 BIANCHIN STEPHANE MS4 3 tc2r 2:23:44.95 10 21 0:28:23.0 3,2 4 1:10:24.6 34,1 29 0:44:57.3 13,3
11 215 LYONNET NICOLAS MS2 2 GEM TRI ATHLE 2:24:19.46 11 34 0:29:46.9 3,0 18 1:14:20.6 32,3 6 0:40:11.9 14,9
12 111 BACQUART BERTRAND MS3 4 MONTPELLIER AGGLO TRIATHLON 2:24:54.34 12 9 0:25:06.7 3,6 7 1:12:38.6 33,0 38 0:47:08.9 12,7
13 205 COUTELET GILLES   9 MAUGIO CARNON TRI 2:24:57.81 13 20 0:28:16.0 3,2 14 1:13:42.4 32,6 15 0:42:59.3 14,0
14 173 NOURISSON MARCEAU MS3 5 Tricastin Triathlon 2:26:24.00 14 14 0:27:44.4 3,2 20 1:14:22.6 32,3 23 0:44:16.8 13,5
15 139 PONTELO GUILLAUME   10 les chameaux de béziers 2:26:43.81 15 77 0:33:00.6 2,7 17 1:14:10.9 32,4 5 0:39:32.1 15,2
16 185 DEJEAN PATRICK MV2 1 MAUGUIO CARNON TRIATHLON 2:26:56.28 16 15 0:27:48.4 3,2 19 1:14:22.0 32,3 28 0:44:45.7 13,4
17 108 CHAPUIS FRANCOIS MS4 4 Montelimar Triathlon 2:27:01.21 17 57 0:31:23.9 2,9 10 1:13:04.4 32,8 13 0:42:32.7 14,1
18 174 GUILLON LIONEL MV1 1 FONTANIL TRIATHLON 2:27:24.87 18 5 0:24:22.4 3,7 27 1:17:06.5 31,1 33 0:45:55.8 13,1
19 51 SABAREL MIKE MV2 2   2:27:39.20 19 41 0:30:17.6 3,0 9 1:12:56.6 32,9 24 0:44:24.8 13,5
20 60 LACHEVRE MATTHIEU MS4 5 ASVRTT 2:27:44.62 20 51 0:30:57.0 2,9 13 1:13:21.8 32,7 16 0:43:25.6 13,8
21 138 PERRIEE NICOLAS MV1 2 So What Architecture 2:29:52.96 21 27 0:29:01.6 3,1 22 1:16:36.6 31,3 22 0:44:14.6 13,6
22 136 BARDIN BRUNO MV1 3 Salon triathlon 2:31:06.62 22 24 0:28:40.9 3,1 23 1:16:38.6 31,3 31 0:45:47.0 13,1
23 218 BOSSA BRUNO MS4 6 MACH3TRI 2:31:12.67 23 44 0:30:27.6 3,0 26 1:16:54.7 31,2 18 0:43:50.3 13,7
24 102 GARCIA PHILIPPE MV3 1 mat 2:31:40.98 24 62 0:31:48.1 2,8 31 1:17:57.8 30,8 11 0:41:54.9 14,3
25 145 FONTEIN ERNA FS4 1 TRI12RODEZ 2:32:32.82 1 25 0:28:47.2 3,1 36 1:19:06.7 30,3 26 0:44:38.9 13,4
26 86 MULDER ALBERT MV3 2 Embrun Triathlon Club 2:34:06.23 25 58 0:31:29.2 2,9 35 1:18:45.8 30,5 19 0:43:51.1 13,7
27 112 CALVAYRAC DIDIER MV1 4 Montpellier triathlon 2:35:05.45 26 37 0:29:57.1 3,0 55 1:21:22.7 29,5 17 0:43:45.5 13,7
28 217 KERNEN VINCENT MS3 6 SALON TRIATHLON 2:35:09.90 27 16 0:27:53.7 3,2 29 1:17:23.4 31,0 73 0:49:52.7 12,0
29 59 CASTELLO MATHIAS MS1 4 ASVEL Triathlon 2:35:25.79 28 10 0:25:16.3 3,6 64 1:22:07.1 29,2 50 0:48:02.2 12,5
30 200 CHARRAIN GEOFFREY MS3 7 Guilheran Granges Triathlon 2:35:44.46 29 80 0:33:16.7 2,7 30 1:17:24.8 31,0 30 0:45:02.9 13,3
31 161 VERDU REGIS MV1 5 SALINDRES TRIATHLON 2:36:02.15 30 91 0:34:02.4 2,6 11 1:13:04.9 32,8 61 0:48:54.7 12,3
32 52 MASSEBOEUF BERNARD MV3 3 ales triathlon 2:36:41.04 31 22 0:28:26.2 3,2 47 1:20:22.1 29,9 47 0:47:52.6 12,5
33 153 GIGNOUX CLAUDE MV3 4 V02triathlon 2:36:43.48 32 26 0:28:53.1 3,1 52 1:21:02.0 29,6 35 0:46:48.2 12,8
34 69 MARTRE CHRISTOPHE MV1 6 BEAUCAIRE TARASCON TRIATHLON 2:37:34.98 33 84 0:33:28.1 2,7 28 1:17:17.5 31,1 36 0:46:49.3 12,8
35 105 DAURIAT BRUNO MV2 3 mauguio-carnon Triatlhon 2:38:23.46 34 47 0:30:40.8 2,9 45 1:20:18.0 29,9 42 0:47:24.5 12,7
36 206 REDON DIDIER MV3 5 Stade Laurentin Triathlon 2:38:56.50 35 102 0:35:05.8 2,6 42 1:19:44.6 30,1 21 0:44:05.9 13,6
37 207 BOUFFART JEROME MS4 7 mauguio carnon triathlon 2:39:01.92 36 50 0:30:53.9 2,9 38 1:19:25.6 30,2 57 0:48:42.2 12,3
38 157 VAYSON CHRISTOPHE MS2 3 ventoux triathlon club carpentras 2:39:49.51 37 39 0:30:03.3 3,0 50 1:20:52.6 29,7 60 0:48:53.5 12,3
39 70 SELOI EMMANUEL MV1 7 BEAUNE MONNOT TRIATHLON 2:39:59.96 38 74 0:32:47.0 2,7 41 1:19:44.4 30,1 43 0:47:28.4 12,6
40 81 CHAPUZET GUILLAUME MS3 8 CROCO D`AIRAIN NIMES TRIATHLON 2:40:19.59 39 42 0:30:18.1 3,0 65 1:22:07.5 29,2 48 0:47:53.8 12,5
41 190 ZAMMIT NICOLAS MS4 8 CSPCG 2:40:29.90 40 43 0:30:24.9 3,0 54 1:21:19.2 29,5 59 0:48:45.7 12,3
42 124 DANIEL GEOFFREY MS4 9 non licencié 2:40:56.50 41 12 0:26:38.1 3,4 92 1:25:04.9 28,2 64 0:49:13.4 12,2
43 202 BOURGEOIS PASCAL MS4 10 Mauguio Carnon Triathlon 2:41:18.86 42 45 0:30:30.5 2,9 88 1:24:24.6 28,4 34 0:46:23.7 12,9
44 163 AVET MICHEL MS4 11 montélimar triathlon 2:41:23.03 43 89 0:33:54.2 2,7 34 1:18:08.4 30,7 66 0:49:20.3 12,2
45 194 SOLER XAVIER MV2 4 USNM 2:41:28.40 44 67 0:32:30.4 2,8 24 1:16:46.5 31,3 90 0:52:11.4 11,5
46 46 COCARD DAMIEN MS4 12 ALBI TRIATHLON 2:41:49.17 45 36 0:29:55.3 3,0 62 1:21:57.1 29,3 75 0:49:56.6 12,0
47 57 VAUQUELIN NICOLAS MS2 4 ASMSE TRI 42 2:41:50.21 46 93 0:34:14.9 2,6 76 1:22:56.7 28,9 25 0:44:38.5 13,4
48 216 GUPWELL TIM   11 les chameaux de béziers 2:41:57.46 47 38 0:29:59.1 3,0 67 1:22:25.5 29,1 71 0:49:32.7 12,1
49 182 VALLEJO LAETITIA FS3 1 VO2 Triathlon 2:42:00.46 2 33 0:29:36.5 3,0 89 1:24:39.3 28,4 45 0:47:44.6 12,6
50 61 SALAVERT JEAN-PAUL MV1 8 ASVRTT villeneuve - avignon 2:42:00.87 48 66 0:32:25.6 2,8 60 1:21:51.0 29,3 44 0:47:44.1 12,6
51 156 OLIVE ERIC MV1 9 Ventoux Triathlon Club Carpentras 2:42:12.37 49 85 0:33:36.7 2,7 49 1:20:46.7 29,7 46 0:47:48.8 12,5
52 48 BOUCHE FRANÇOIS MV4 1 Ales triathlon 2:43:20.17 50 88 0:33:49.2 2,7 53 1:21:03.3 29,6 55 0:48:27.5 12,4
53 175 LOPEZ DAVID MS3 9 Mauguio Carnon Triathlon 2:43:31.98 51 32 0:29:23.5 3,1 40 1:19:40.7 30,1 108 0:54:27.7 11,0
54 184 NADAL MICHAEL MS4 13 Waimea Triathlon club LUNEL 2:43:49.20 52 95 0:34:19.5 2,6 70 1:22:38.0 29,0 37 0:46:51.6 12,8
55 220 AMBBLARD DIDIER   12 TRI BIKE34110445619852MV2FRA 2:43:58.54 53 40 0:30:16.7 3,0 69 1:22:36.4 29,1 79 0:51:05.3 11,7
56 144 LACOMBE JEROME MS4 14 TRI12RODEZ 2:44:00.92 54 73 0:32:46.3 2,7            
57 47 DELSOL MICHEL MV1 10 ALBI TRIATHLON 2:44:12.57 55 55 0:31:21.9 2,9 51 1:21:00.5 29,6 89 0:51:50.0 11,6
58 219 MAURIN CHRISTOPHE MV2 5 triathlon manosque 2:44:31.75 56 75 0:32:58.3 2,7 87 1:24:23.5 28,4 39 0:47:09.8 12,7
59 134 FARGEOT JEROME MS4 15 PROMAN 2:44:57.28 57 83 0:33:25.7 2,7 59 1:21:50.3 29,3 72 0:49:41.2 12,1
60 56 BAYLE JEAN PHILIPPE MV1 11 AS Villeneuve Triathlon 2:45:24.14 58 136 0:38:14.5 2,4 33 1:18:07.1 30,7 62 0:49:02.5 12,2
61 53 CALDESAIGUES FREDERIC MV1 12 ales triathlon 2:46:05.15 59 49 0:30:53.0 2,9 68 1:22:34.5 29,1 96 0:52:37.6 11,4
62 160 COTARD GWENAËL MV1 13 WAIMEA TC LUNEL 2:46:09.06 60 48 0:30:46.1 2,9 81 1:23:40.3 28,7 87 0:51:42.5 11,6
63 50 MIELKE CHRISTINE FS4 2 ales triathlon 2:46:09.68 3 52 0:31:03.5 2,9 98 1:25:45.3 28,0 67 0:49:20.8 12,2
64 87 BLUMBERG MARK MV1 14 Expatries 2:46:16.45 61 123 0:36:43.8 2,5 90 1:24:49.2 28,3 27 0:44:43.3 13,4
65 196 DELFAU PHILIPPE MV2 6 USNM 2:46:29.20 62 130 0:37:21.4 2,4 43 1:20:04.9 30,0 63 0:49:02.7 12,2
66 93 BEROD THIERRY MV4 2 Istres Sport Triathlon 2:46:43.42 63 98 0:34:54.9 2,6 66 1:22:16.0 29,2 70 0:49:32.4 12,1
67 120 KNUTS KURT MS4 16 No Club 2:46:53.93 64 29 0:29:05.1 3,1 74 1:22:41.5 29,0 116 0:55:07.2 10,9
68 141 VAN DER VALK VALENTIJN MS3 10 Team AlpeLune 2:46:57.14 65 142 0:38:37.0 2,3 25 1:16:54.0 31,2 84 0:51:26.0 11,7
69 168 MALLEJAC GILLES MV1 15 triathlon catalan 2:47:19.25 66 101 0:35:04.2 2,6 48 1:20:43.0 29,7 86 0:51:32.0 11,6
70 82 PATURET BENJAMIN MS3 11 croco nimes triathlon 2:47:44.68 67 70 0:32:36.2 2,8 91 1:24:51.3 28,3 76 0:50:17.0 11,9
71 97 DALVERNY FLORENT MS1 5 Kronos Triathlon 2:47:47.46 68 107 0:35:19.1 2,5 103 1:26:36.3 27,7 32 0:45:52.0 13,1
72 171 CHAGNET JEAN-PIERRE MV1 16 TRIATHLON MANOSQUE 2:47:49.36 69 120 0:36:30.4 2,5 75 1:22:51.2 29,0 56 0:48:27.6 12,4
73 103 DUTHOIT OLIVIER MV2 7 MAUGUIO CARNON 2:47:54.86 70 129 0:37:13.3 2,4 71 1:22:38.7 29,0 51 0:48:02.7 12,5
74 135 AUDIBERT FRANCK MV2 8 Rouen Racing Triathlon 2:48:01.54 71 63 0:32:07.7 2,8 72 1:22:40.8 29,0 100 0:53:12.9 11,3
75 178 HENDRICKS JIMMY MS4 17 - 2:48:07.26 72 71 0:32:42.1 2,8 83 1:24:02.4 28,6 82 0:51:22.6 11,7
76 74 WEISLO FRÉDÉRIC MS4 18 club 2:48:33.34 73 118 0:36:20.4 2,5 57 1:21:28.1 29,5 77 0:50:44.7 11,8
77 54 ETIENNE PATRICK MV2 9 ales triathlon 2:48:44.92 74 96 0:34:31.8 2,6 79 1:23:19.0 28,8 78 0:50:54.0 11,8
78 165 SANCHEZ DAVID MS3 12 WAIMEATRIATHLON CLUB 2:48:45.76 75 126 0:36:56.3 2,4 46 1:20:20.1 29,9 85 0:51:29.2 11,7
79 189 CADOR ANDRE MARC MV3 6 billom triathlon 2:48:56.42 76 94 0:34:17.9 2,6 93 1:25:17.2 28,1 68 0:49:21.2 12,2
80 181 DANIEL YANN MS3 13 Sécurité 2:49:00.46 77 131 0:37:32.7 2,4 78 1:23:08.7 28,9 54 0:48:19.0 12,4
81 68 SAMMARTANO DAVID MS4 19 babysun 2:49:18.11 78 116 0:36:09.6 2,5 58 1:21:44.2 29,4 83 0:51:24.2 11,7
82 137 MORILLAS DAVID MS3 14 SNDP 2:49:31.65 79 99 0:34:55.1 2,6 101 1:26:21.4 27,8 53 0:48:15.0 12,4
83 71 GROU RENÉ MV5 1 BEZIERS TRIATHLON 2:49:51.61 80 76 0:32:58.9 2,7 82 1:23:47.2 28,6 99 0:53:05.4 11,3
84 214 DEMOURANT ERIC-PIERRE MS4 20 Leze Arize Triathlon 2:50:13.29 81 69 0:32:34.9 2,8 77 1:23:08.2 28,9 109 0:54:30.1 11,0
85 172 BARTYZYNC JAMES MS4 21 MAT 2:50:30.26 82 30 0:29:13.2 3,1 80 1:23:39.2 28,7 127 0:57:37.7 10,4
86 192 PARADIS JEAN CLAUDE MV3 7 Mauguio-Carnon Triathlon 2:50:33.46 83 108 0:35:20.1 2,5 73 1:22:41.5 29,0 95 0:52:31.7 11,4
87 83 RATIGNIER FRANCOIS MV3 8 crocos d'airain nimes triathlon 2:50:49.37 84 86 0:33:37.7 2,7 108 1:27:17.2 27,5 74 0:49:54.2 12,0
88 166 ALLIBERT MAXIME MS1 6 MONTELIMAR TRIATHLON 2:51:03.67 85 17 0:27:59.2 3,2 104 1:26:40.2 27,7 122 0:56:24.2 10,6
89 115 VERRIER NICOLAS MS4 22 na 2:51:21.79 86 60 0:31:43.0 2,8 95 1:25:34.9 28,0 106 0:54:03.8 11,1
90 92 DUMAS STÉPHANE MV1 17 individuel 2:51:23.96 87 140 0:38:25.2 2,3 32 1:18:00.0 30,8 114 0:54:58.6 10,9
91 142 BIERMANS VINCENT MS4 23 Team AlpeLune 2:51:24.79 88 153 0:41:06.7 2,2 63 1:22:06.8 29,2 52 0:48:11.2 12,5
92 188 LAGATHU CHRISTOPHE MS4 24 VO2 TRIATHLON 2:51:30.31 89 54 0:31:20.5 2,9 94 1:25:25.2 28,1 111 0:54:44.5 11,0
93 80 MARTINEZ OLIVIER MS3 15 CROCO D AIRAIN 2:51:36.09 90 100 0:34:57.7 2,6 61 1:21:52.9 29,3 112 0:54:45.4 11,0
94 170 GATTA JEAN-LUC MV3 9 MONTELIMAR TRIATHLON 2:51:36.45 91 72 0:32:42.9 2,8 85 1:24:08.1 28,5 113 0:54:45.4 11,0
95 84 HUE LAURENCE FS3 2 DRAVEIL TRIATHLON 2:52:53.75 4 23 0:28:31.8 3,2 117 1:28:07.9 27,2 121 0:56:14.0 10,7
96 96 THAISSART DIDIER MV1 18 ivry triathlon 2:52:57.70 92 78 0:33:09.5 2,7 114 1:27:59.8 27,3 88 0:51:48.2 11,6
97 151 PONS NICOLAS MS4 25 Trisalève 2:53:00.98 93 154 0:41:20.6 2,2 86 1:24:20.0 28,5 41 0:47:20.2 12,7
98 143 MOLINA FREDERIC MV1 19 tri club de l'isle sur sorgue 2:53:25.81 94 112 0:35:53.5 2,5 155 1:45:40.0 22,7 1 0:31:52.2 18,8
99 79 VINCENT ARNAUD MS2 5 CROCO D AIRAIN 2:53:28.87 95 65 0:32:23.9 2,8 111 1:27:46.4 27,3 101 0:53:18.5 11,3
100 44 BONNAUD BERTRAND MV3 10 a 2:53:43.71 96 81 0:33:22.5 2,7 122 1:30:49.0 26,4 69 0:49:32.0 12,1
101 62 HOUPPIN PIERRE MATHIEU MS4 26 Aucun 2:54:35.48 97 103 0:35:08.6 2,6 107 1:27:07.6 27,5 91 0:52:19.2 11,5
102 152 HAUDUIN JULIEN MS2 6 UA SOCIETE GENERALE 2:54:49.14 98 87 0:33:39.8 2,7 102 1:26:26.5 27,8 110 0:54:42.6 11,0
103 104 MERCEUR VALERIE FS4 3 Mauguio Carnon Triathlon 2:55:07.93 5 114 0:36:05.3 2,5 97 1:25:39.0 28,0 102 0:53:23.4 11,2
104 90 DELOMAIS DENIS MS3 16 Free Iron Team 2:55:15.11 99 92 0:34:04.4 2,6 106 1:27:05.7 27,6 107 0:54:04.8 11,1
105 126 MORILLAS CHRISTOPHE MS2 7 Non licencié 2:56:19.40 100 110 0:35:34.1 2,5 118 1:28:23.9 27,1 92 0:52:21.2 11,5
106 49 SAURA ANTONY MS4 27 ales triathlon 2:56:30.37 101 64 0:32:19.3 2,8 96 1:25:35.9 28,0 133 0:58:35.0 10,2
107 43 BIENVENU CHRITOPHE MS4 28 / 2:56:58.39 102 162 2:00:45.5 0,7            
108 210 VIREY JULIEN MS2 8 Aucun 2:57:20.32 103 149 0:40:31.8 2,2 44 1:20:13.1 29,9 123 0:56:35.3 10,6
109 98 DUPONT OLIVIER MV3 11 LES HYDRO 2:57:20.67 104 135 0:38:10.0 2,4 126 1:31:09.7 26,3 49 0:48:00.9 12,5
110 204 MARTIN XAVIER MS4 29 Montelimar Triathlon 2:57:49.71 105 90 0:33:59.6 2,6 112 1:27:46.8 27,3 119 0:56:03.2 10,7
111 159 SIRVENT LOIC MS2 9 Via innova 2:58:40.00 106 68 0:32:32.2 2,8 84 1:24:06.9 28,5 141 1:02:00.7 9,7
112 75 RODRIGUEZ PILAR FV1 1 Club triatlo serradells 2:58:48.76 6 82 0:33:23.5 2,7 143 1:36:40.6 24,8 58 0:48:44.5 12,3
113 101 JONES FRED MS4 30 libre 2:59:44.26 107 31 0:29:19.2 3,1 132 1:32:52.0 25,8 126 0:57:32.9 10,4
114 94 BEROD BRIGITTE FV3 1 Istres Sport Triathlon 2:59:52.70 7 104 0:35:08.6 2,6 100 1:26:09.2 27,9 132 0:58:34.7 10,2
115 119 MICHEL BERNARD MV3 12 NIMES MARATHON 3:00:09.14 108 156 0:43:31.7 2,1 109 1:27:18.8 27,5 65 0:49:18.5 12,2
116 91 MESSIAEN GREGORY MS3 17 Ifremer 3:01:05.03 109 35 0:29:49.8 3,0 115 1:28:02.9 27,3 145 1:03:12.2 9,5
117 77 DURIER SEVERINE FS4 4 Courbevoie triathlon 3:01:26.46 8 111 0:35:50.3 2,5 134 1:33:13.5 25,7 94 0:52:22.5 11,5
118 109 DELACROIX ERIC MV2 10 montelimar triathlon 3:03:15.03 110 159 0:45:39.8 2,0 37 1:19:11.6 30,3 131 0:58:23.5 10,3
119 180 MARTEAU MARC MS4 31 triathlon club beaucaire tarascon 3:03:25.06 111 151 0:40:49.8 2,2 120 1:29:41.0 26,8 97 0:52:54.1 11,3
120 169 SOULIGNAC MICHAEL MS3 18 tribike34 3:04:20.67 112 117 0:36:10.9 2,5 105 1:26:54.7 27,6 140 1:01:14.9 9,8
121 154 FELGEROLLES SANDRINE FV1 2 VCSSP section triathlon 3:04:38.82 9 141 0:38:26.8 2,3 137 1:35:02.5 25,3 80 0:51:09.5 11,7
122 129 CHANE SIEGRID FV1 3 ONN 3:05:00.46 10 113 0:35:54.3 2,5 133 1:32:53.4 25,8 120 0:56:12.6 10,7
123 73 JOUBAIRE XAVIER MV2 11 cavaillon triathlon club 3:05:29.98 113 161 0:46:18.8 1,9 99 1:26:07.4 27,9 98 0:53:03.6 11,3
124 130 VOLTIGEUR THOMAS MS2 10 pas de club 3:05:43.84 114 106 0:35:17.2 2,6 131 1:32:41.5 25,9 128 0:57:45.0 10,4
125 118 CAUQUIL GIL MV2 12 néant 3:06:16.28 115 61 0:31:45.9 2,8 116 1:28:06.5 27,2 149 1:06:23.8 9,0
126 67 ARBONA LAURENT MV1 20 aucune 3:06:16.36 116 144 0:38:46.3 2,3 110 1:27:25.7 27,5 136 1:00:04.3 10,0
127 117 DUPONT PHILIPPE MV4 3 neant 3:06:16.43 117 148 0:40:02.0 2,2 124 1:31:08.2 26,3 115 0:55:06.2 10,9
128 148 HUSSON MARIE PIERRE FV2 1 Triathl'Aix 3:06:42.29 11 145 0:39:02.5 2,3 135 1:34:02.9 25,5 104 0:53:36.8 11,2
129 146 SOUPET ELODIE FV1 4 trialp 06 3:06:50.79 12 115 0:36:07.1 2,5 145 1:37:08.5 24,7 103 0:53:35.1 11,2
130 113 GES RICHARD MV2 13 MTP AGGLO TRIATHLON 3:06:55.39 118 79 0:33:10.6 2,7 136 1:34:11.0 25,5 135 0:59:33.7 10,1
131 58 ROBERT SYLVIE FV2 2 ASV TRIATHLON 3:09:20.51 13 59 0:31:33.1 2,9 123 1:30:54.1 26,4 151 1:06:53.2 9,0
132 76 RUDENT SOPHIE FV2 3 COURBEVOIE TRIATHLON 3:10:10.42 14 133 0:37:55.4 2,4 125 1:31:09.2 26,3 139 1:01:05.7 9,8
133 64 SCHALLER FREDERIC MV1 21 aucun 3:11:02.20 119 157 0:43:48.3 2,1 128 1:31:53.0 26,1 117 0:55:20.7 10,8
134 187 BOULOC CHRISTIAN MV4 4 ? A DEMANDER 3:12:16.40 120 150 0:40:34.6 2,2 139 1:35:50.2 25,0 118 0:55:51.4 10,7
135 116 CANIOU OLIVIER MV1 22 neant 3:12:21.18 121 137 0:38:19.0 2,3 138 1:35:06.6 25,2 134 0:58:55.4 10,2
136 125 PREVOT RICHARD MS4 32 non licencié 3:12:32.95 122 109 0:35:21.9 2,5 153 1:44:49.6 22,9 93 0:52:21.4 11,5
137 121 PERROT GUENAELLE FV1 5 Nogent Solidarité Triathlon 3:15:25.82 15 128 0:37:11.3 2,4 150 1:40:14.9 23,9 130 0:57:59.5 10,3
138 100 ROYO DANIEL MS4 33 Leze Arize Triathlon 3:15:42.28 123 143 0:38:38.3 2,3 148 1:39:45.7 24,1 125 0:57:18.2 10,5
139 155 NOUVEL CORINE FV3 2 VCSSP section triathlon 3:15:46.06 16 139 0:38:22.2 2,3 146 1:37:17.7 24,7 137 1:00:06.0 10,0
140 201 SALAÜN THIERRY MV2 14 Capbreton Triathlon 3:16:32.79 124 121 0:36:32.5 2,5 144 1:36:53.9 24,8 143 1:03:06.3 9,5
141 65 HOMMET CHRISTELLE FV1 6 aucune 3:16:34.96 17 160 0:45:56.8 2,0 142 1:36:40.4 24,8 105 0:53:57.7 11,1
142 95 GOUIRAN OLIVIER MV1 23 Istres Sports Triathlon 3:18:36.39 125 125 0:36:52.5 2,4 121 1:30:35.1 26,5 154 1:11:08.6 8,4
143 66 BORTONE AGUSTIN MS4 34 aucune 3:18:47.51 126 155 0:41:31.4 2,2 149 1:40:01.5 24,0 124 0:57:14.5 10,5
144 114 FAUDIN SÉBASTIEN MS3 19 N/A 3:18:58.25 127 127 0:37:09.9 2,4 119 1:29:17.6 26,9 155 1:12:30.6 8,3
145 131 FAVASUILI MARCO MS2 11 pas de club 3:19:35.75 128 158 0:44:02.7 2,0 129 1:32:05.2 26,1 146 1:03:27.6 9,5
146 72 SCHERER CHRISTOPHE MV2 15 CUC 3:19:47.17 129 122 0:36:39.7 2,5 154 1:45:17.7 22,8 129 0:57:49.5 10,4
147 147 CONNESSON MURIEL FS4 5 TRIALP MOIRANS 3:20:38.78 18 132 0:37:35.0 2,4 140 1:36:20.7 24,9 150 1:06:43.0 9,0
148 198 JOUJOUX NICOLAS MS3 20 ostéopathe de Boisseron 3:20:53.92 130 119 0:36:23.6 2,5 151 1:41:26.7 23,7 142 1:03:03.5 9,5
149 140 BOURCIER BÉRENGÈRE FS4 6 Stade Laurentin Triathlon 3:22:59.07 19 97 0:34:44.3 2,6 156 1:47:28.3 22,3 138 1:00:46.3 9,9
150 63 LE MAREC MICHAEL MS4 35 Aucun 3:23:11.37 131 138 0:38:19.7 2,3 141 1:36:33.2 24,9 152 1:08:18.3 8,8
151 158 FRUCTUS RÉMI MS2 12 Via Innova 3:24:21.82 132 105 0:35:12.7 2,6 147 1:38:12.4 24,4 153 1:10:56.5 8,5
152 167 CURTIL BERTRAND MV5 2 O.N.N. 3:26:15.82 133 146 0:39:43.4 2,3 152 1:42:06.7 23,5 147 1:04:25.6 9,3
153 149 WECK ALAIN MV2 16 triathlon club des 2 rives 3:33:12.17 134 124 0:36:49.2 2,4 159 1:53:10.7 21,2 144 1:03:12.1 9,5
154 128 GRANGER CAROLINE FS4 7 non licenciée 3:35:22.28 20 152 0:40:53.6 2,2 157 1:48:05.2 22,2 148 1:06:23.3 9,0
155 55 BISCARRAT CHRISTELLE FS3 3 amberieu en bugey 4:06:24.11 21 134 0:38:06.4 2,4 158 1:52:40.1 21,3 156 1:35:37.5 6,3
156 45 PATER BRIAN MV4 0 AL Echirolles Triathlon 0:00:00.00 Abd                  
157 78 PEZZELLA CHRISTOPHE MS4 0 CREUSOT TRIATHLON 0:00:00.00 Abd                  
158 89 DAFFIS JULIEN MS3 0 Free Iron Team 0:00:00.00 Abd                  
159 106 CARDOSO RUI MS4 0 MISTRAL TRIATH'CLUB 0:00:00.00 Abd                  
160 107 GIACOMELLI KAREN FS4 0 montelimar triathlon 0:00:00.00 Abd                  
161 122 COMTE PHILIPPE MS4 0 NON LICENCIE 0:00:00.00 Abd 28 0:29:03.4 3,1 113 1:27:58.6 27,3      
162 123 PAYRE CHRISTOPHE MV2 0 non licencié 0:00:00.00 Abd                  
163 127 FELENC SEBASTIEN MS4 0 non licencié 0:00:00.00 Abd                  
164 132 MINVIELLE MARTIN MS1 0 Perso 0:00:00.00 Abd                  
165 133 LOISEL OLIVIER MS4 0 PERSONNEL 0:00:00.00 Abd                  
166 162 MOSSLER JOHANN MS1 0 triathlon romanais peageois 0:00:00.00 Abd 46 0:30:39.7 2,9 15 1:14:03.6 32,4      
167 164 TRIOLLE FABRICE MS4 0 MONTPELLIER AGGLOMERATION TRIATHLON 0:00:00.00 Abd                  
168 176 MAUCOURT PATRICK MV1 0 Triathlon club narbonnais 0:00:00.00 Abd                  
169 179 PARRATTE FRANCK MS4 0 nimes triathlon 0:00:00.00 Abd 18 0:28:01.0 3,2 127 1:31:32.1 26,2      
170 183 VIREY JULIEN MS2 0 Aucun 0:00:00.00 Abd                  
171 191 CRESPON BERNARD MS4 0 ales triathlon 0:00:00.00 Abd                  
172 195 DILLAT SYLVAIN MS3 0 USNM 0:00:00.00 Abd                  
173 199 BOUCHET ELODIE FS2 0 Jogging Club de Martigues 0:00:00.00 Abd                  
174 208 GARCIA FRÉDÉRIC MS1 0 CRV LYON TRIATHLON 0:00:00.00 Abd 4 0:24:01.6 3,7            
175 211 RIOU DANIEL MS4 0 Non Licencié 0:00:00.00 Abd                  
176 212 GENET RICHARD MV3 0 non licencié 0:00:00.00 Abd                  
177 213 PRUVOST OLIVIER MV1 0 NON LICENCIE 0:00:00.00 Abd                  
178 42 PERRIN GUILLAUME MS3 0 - 2:34:53.39 Dsq 56 0:31:22.8 2,9 39 1:19:37.9 30,1 20 0:43:52.5 13,7
179 41 LE FAILLER YANN MS4 0 - 2:40:00.09 Dsq 53 0:31:19.0 2,9 56 1:21:23.7 29,5 40 0:47:17.2 12,7
180 85 PATEY PIERRE MS4 0 ELEX 3:03:12.26 Dsq 147 0:39:52.4 2,3 130 1:32:08.3 26,0 81 0:51:11.4 11,7